Time;durP1;ratioP1;P1;durP2;ratioP2;P2;SDS_P1;SDS_P2;PMS_P1;PMS_P2;Temp;Humidity;BMP_temperature;BMP_pressure;BME280_temperature;BME280_humidity;BME280_pressure;Samples;Min_cycle;Max_cycle;Signal;HPM_P1;HPM_P2
2024/01/10 00:00:00;;;;;;;233.40;70.00;;;;;;;-16.40;85.47;100832.33;273901;1270;23355;-78
2024/01/10 00:06:02;;;;;;;243.40;74.10;;;;;;;-16.39;85.65;100821.98;273899;1265;22319;-78
2024/01/10 00:12:04;;;;;;;286.40;89.20;;;;;;;-16.36;85.77;100824.09;274009;1267;22388;-78
2024/01/10 00:18:06;;;;;;;304.20;93.80;;;;;;;-16.43;85.37;100822.20;273958;1257;22317;-78
2024/01/10 00:24:08;;;;;;;310.80;100.00;;;;;;;-16.48;85.50;100819.05;273974;1266;22275;-78
2024/01/10 00:30:09;;;;;;;299.40;94.00;;;;;;;-16.47;85.46;100814.27;273940;1267;23124;-78
2024/01/10 00:36:12;;;;;;;348.30;106.30;;;;;;;-16.51;85.04;100808.23;273943;1267;22388;-78
2024/01/10 00:42:13;;;;;;;300.60;94.70;;;;;;;-16.51;85.49;100813.52;273901;1267;22265;-78
2024/01/10 00:48:17;;;;;;;306.30;101.10;;;;;;;-16.52;85.36;100813.54;273913;1271;22219;-78
2024/01/10 00:54:18;;;;;;;373.90;114.10;;;;;;;-16.60;85.21;100812.81;273939;1266;22386;-78
2024/01/10 01:00:20;;;;;;;343.00;108.60;;;;;;;-16.65;85.25;100822.85;273918;1266;23288;-78
2024/01/10 01:06:22;;;;;;;314.30;95.20;;;;;;;-16.76;84.99;100820.38;273879;1266;22364;-78
2024/01/10 01:12:24;;;;;;;281.60;87.80;;;;;;;-16.72;85.30;100821.73;274058;1267;22426;-78
2024/01/10 01:18:26;;;;;;;284.60;90.90;;;;;;;-16.67;85.13;100828.65;274003;1266;22148;-78
2024/01/10 01:24:27;;;;;;;251.70;80.60;;;;;;;-16.68;84.92;100833.91;274114;1265;22231;-78
2024/01/10 01:30:29;;;;;;;246.40;83.30;;;;;;;-16.84;84.70;100836.38;274183;1266;22183;-78
2024/01/10 01:36:31;;;;;;;326.20;95.50;;;;;;;-17.03;84.79;100829.52;273994;1266;22224;-80
2024/01/10 01:42:32;;;;;;;334.00;102.40;;;;;;;-17.00;85.36;100820.64;273368;1266;22968;-78
2024/01/10 01:48:35;;;;;;;315.90;100.40;;;;;;;-16.85;85.64;100804.15;273750;1265;22531;-78
2024/01/10 01:54:37;;;;;;;295.00;94.60;;;;;;;-16.83;85.52;100793.38;272771;1266;22530;-79
2024/01/10 02:00:43;;;;;;;320.20;103.30;;;;;;;-16.70;85.67;100791.42;273880;1265;22415;-80
2024/01/10 02:06:45;;;;;;;340.60;105.20;;;;;;;-16.70;85.50;100794.20;273932;1265;22366;-79
2024/01/10 02:12:47;;;;;;;340.70;105.50;;;;;;;-16.62;85.77;100796.39;273836;1265;22348;-79
2024/01/10 02:18:49;;;;;;;343.60;113.60;;;;;;;-16.53;85.76;100799.96;274018;1262;22276;-79
2024/01/10 02:24:53;;;;;;;351.00;110.70;;;;;;;-16.43;85.73;100802.59;274037;1265;22531;-79
2024/01/10 02:37:32;;;;;;;283.60;93.00;;;;;;;-16.52;85.21;100796.83;271220;1278;22220;-79
2024/01/10 02:43:34;;;;;;;258.50;78.80;;;;;;;-16.58;85.15;100789.65;272264;1279;22215;-79
2024/01/10 02:49:35;;;;;;;254.80;78.00;;;;;;;-16.57;85.20;100781.21;272326;1283;22290;-79
2024/01/10 02:55:37;;;;;;;277.30;84.10;;;;;;;-16.81;84.56;100769.02;272289;1277;23139;-79
2024/01/10 03:01:39;;;;;;;255.00;82.50;;;;;;;-16.90;85.01;100767.35;272418;1277;23433;-79
2024/01/10 03:07:41;;;;;;;287.90;88.10;;;;;;;-16.87;84.90;100765.14;272535;1279;22248;-78
2024/01/10 03:13:46;;;;;;;300.70;92.40;;;;;;;-16.78;85.34;100761.73;272532;1281;22257;-80
2024/01/10 03:19:47;;;;;;;293.20;87.80;;;;;;;-16.63;85.69;100754.55;272422;1283;22205;-79
2024/01/10 03:25:49;;;;;;;262.40;82.90;;;;;;;-16.71;85.01;100746.64;272484;1279;22774;-79
2024/01/10 03:31:51;;;;;;;262.50;86.10;;;;;;;-16.98;84.77;100736.70;272502;1277;24050;-79
2024/01/10 03:37:52;;;;;;;291.80;88.90;;;;;;;-16.84;85.35;100734.77;272441;1277;23258;-79
2024/01/10 03:43:54;;;;;;;258.10;85.30;;;;;;;-16.80;85.17;100737.30;272437;1279;22178;-78
2024/01/10 03:49:56;;;;;;;280.00;92.90;;;;;;;-16.75;85.36;100737.36;272399;1277;23387;-78
2024/01/10 03:55:58;;;;;;;292.60;92.60;;;;;;;-16.77;85.20;100737.15;272365;1281;22454;-78
2024/01/10 04:02:00;;;;;;;284.40;92.00;;;;;;;-16.80;85.11;100734.64;272190;1277;22343;-78
2024/01/10 04:08:03;;;;;;;291.20;90.30;;;;;;;-16.82;85.04;100729.66;272455;1277;22169;-79
2024/01/10 04:14:05;;;;;;;246.60;80.10;;;;;;;-16.87;84.93;100728.08;272345;1277;22252;-78
2024/01/10 04:20:08;;;;;;;266.30;84.00;;;;;;;-16.85;85.07;100724.15;272479;1278;23450;-78
2024/01/10 04:26:10;;;;;;;275.10;87.70;;;;;;;-16.84;84.89;100724.51;272487;1276;23609;-79
2024/01/10 04:32:12;;;;;;;248.40;84.00;;;;;;;-16.82;85.04;100725.77;271910;1279;22414;-79
2024/01/10 04:38:14;;;;;;;269.40;82.30;;;;;;;-16.83;84.83;100721.36;272347;1277;22489;-78
2024/01/10 04:44:16;;;;;;;276.50;86.20;;;;;;;-16.72;85.00;100725.94;272201;1277;22224;-78
2024/01/10 04:50:38;;;;;;;242.40;79.30;;;;;;;-16.52;85.05;100731.95;272322;1277;22182;-78
2024/01/10 04:56:39;;;;;;;222.70;77.60;;;;;;;-16.71;84.34;100735.00;272529;1282;22184;-78
2024/01/10 05:02:43;;;;;;;252.40;78.20;;;;;;;-16.88;84.44;100727.31;272360;1283;22293;-78
2024/01/10 05:08:45;;;;;;;256.60;80.20;;;;;;;-17.00;84.60;100726.52;272468;1280;22883;-79
2024/01/10 05:14:46;;;;;;;234.60;73.70;;;;;;;-16.96;84.68;100732.20;272452;1277;22408;-79
2024/01/10 05:20:48;;;;;;;245.20;80.00;;;;;;;-16.84;85.23;100735.95;272298;1275;22335;-78
2024/01/10 05:26:51;;;;;;;215.80;69.70;;;;;;;-16.72;84.88;100741.98;272302;1276;23596;-79
2024/01/10 05:32:54;;;;;;;225.20;70.30;;;;;;;-16.69;84.53;100745.02;272239;1274;22328;-78
2024/01/10 05:38:56;;;;;;;210.30;69.10;;;;;;;-16.69;84.54;100745.89;272423;1276;22357;-78
2024/01/10 05:44:59;;;;;;;191.20;68.50;;;;;;;-16.76;84.16;100744.95;272557;1283;22250;-78
2024/01/10 05:51:01;;;;;;;215.70;74.20;;;;;;;-16.82;84.37;100748.55;272511;1279;22238;-78
2024/01/10 05:57:04;;;;;;;223.20;69.70;;;;;;;-17.05;84.01;100746.20;272377;1277;23009;-79
2024/01/10 06:03:07;;;;;;;156.00;50.70;;;;;;;-16.96;84.47;100748.80;272459;1276;22221;-79
2024/01/10 06:09:37;;;;;;;217.80;77.00;;;;;;;-16.91;84.68;100758.84;272560;1276;22231;-79
2024/01/10 06:15:39;;;;;;;248.70;81.70;;;;;;;-16.90;84.56;100759.36;272438;1280;22423;-79
2024/01/10 06:21:42;;;;;;;265.00;86.40;;;;;;;-16.94;84.79;100753.48;272362;1276;23716;-79
2024/01/10 06:27:43;;;;;;;203.00;73.20;;;;;;;-16.81;85.02;100753.97;272372;1274;23544;-80
2024/01/10 06:33:45;;;;;;;227.50;80.80;;;;;;;-16.68;85.06;100763.45;272440;1275;23587;-80
2024/01/10 06:39:47;;;;;;;263.70;85.70;;;;;;;-16.62;84.81;100764.91;272025;1276;22232;-79
2024/01/10 06:45:48;;;;;;;261.40;81.70;;;;;;;-16.69;84.49;100765.88;270375;1274;22345;-79
2024/01/10 06:51:50;;;;;;;267.60;84.60;;;;;;;-16.77;84.45;100766.36;272316;1274;22837;-79
2024/01/10 06:58:12;;;;;;;311.20;95.00;;;;;;;-16.79;84.75;100758.99;272363;1274;22207;-79
2024/01/10 07:04:15;;;;;;;304.50;94.50;;;;;;;-16.80;84.34;100763.17;272251;1275;23226;-79
2024/01/10 07:10:17;;;;;;;242.90;85.50;;;;;;;-16.93;84.43;100753.69;272373;1276;23376;-79
2024/01/10 07:16:19;;;;;;;322.70;101.10;;;;;;;-16.89;84.64;100752.63;272427;1276;22301;-79
2024/01/10 07:22:21;;;;;;;310.10;95.80;;;;;;;-16.87;84.52;100750.23;272379;1277;22242;-78
2024/01/10 07:28:23;;;;;;;271.70;88.70;;;;;;;-16.83;84.50;100745.45;272395;1280;22804;-78
2024/01/10 07:34:25;;;;;;;291.00;96.40;;;;;;;-16.70;85.10;100744.48;272196;1280;22344;-78
2024/01/10 07:40:47;;;;;;;277.00;89.90;;;;;;;-16.49;85.31;100747.42;272348;1275;22257;-78
2024/01/10 07:46:50;;;;;;;304.30;96.20;;;;;;;-16.40;85.27;100740.74;272394;1276;22993;-79
2024/01/10 07:52:52;;;;;;;304.10;93.90;;;;;;;-16.20;85.04;100737.74;272497;1283;22216;-78
2024/01/10 07:59:14;;;;;;;354.70;103.50;;;;;;;-16.13;84.96;100742.42;272438;1277;22309;-79
2024/01/10 08:05:42;;;;;;;326.60;102.20;;;;;;;-15.93;85.33;100740.96;271927;1261;24225;-79
2024/01/10 08:11:47;;;;;;;360.90;111.40;;;;;;;-15.73;85.70;100748.58;272200;1277;22571;-80
2024/01/10 08:17:52;;;;;;;345.70;107.80;;;;;;;-15.44;86.49;100745.17;270891;1275;22312;-80
2024/01/10 08:24:19;;;;;;;399.00;129.80;;;;;;;-15.03;86.70;100746.89;270912;1277;22398;-80
2024/01/10 08:30:50;;;;;;;395.50;135.30;;;;;;;-14.64;87.12;100747.08;272444;1277;22191;-80
2024/01/10 08:36:53;;;;;;;430.10;143.50;;;;;;;-14.21;87.33;100743.01;272121;1275;22513;-80
2024/01/10 08:42:55;;;;;;;431.50;145.60;;;;;;;-13.61;88.11;100746.14;272036;1276;22810;-80
2024/01/10 08:49:24;;;;;;;406.60;138.80;;;;;;;-13.19;87.77;100747.20;272257;1275;22380;-81
2024/01/10 08:55:26;;;;;;;348.00;112.50;;;;;;;-12.79;87.86;100746.50;270256;1275;22233;-81
2024/01/10 09:01:29;;;;;;;415.70;147.30;;;;;;;-12.63;87.78;100740.14;271346;1276;22410;-81
2024/01/10 09:07:32;;;;;;;408.10;145.00;;;;;;;-11.90;88.92;100737.98;272250;1275;22234;-81
2024/01/10 09:13:34;;;;;;;398.30;144.50;;;;;;;-11.17;89.13;100734.64;272086;1275;23964;-81
2024/01/10 09:19:37;;;;;;;379.10;137.80;;;;;;;-10.40;89.32;100719.21;271039;1271;22402;-81
2024/01/10 09:25:40;;;;;;;352.60;133.30;;;;;;;-9.71;88.72;100714.27;268387;1275;5471133;-81
2024/01/10 09:31:41;;;;;;;385.90;142.00;;;;;;;-9.49;88.20;100709.14;271776;1268;22214;-81
2024/01/10 09:38:24;;;;;;;381.50;142.90;;;;;;;-9.45;87.74;100708.00;272447;1277;22211;-81
2024/01/10 09:44:33;;;;;;;368.20;137.50;;;;;;;-9.16;87.37;100699.41;272624;1277;23444;-81
2024/01/10 09:50:59;;;;;;;345.30;135.10;;;;;;;-8.57;88.52;100691.72;271718;1276;22873;-81
2024/01/10 09:57:05;;;;;;;343.40;139.30;;;;;;;-7.82;88.74;100681.59;272379;1278;22203;-82
2024/01/10 10:03:13;;;;;;;372.70;142.20;;;;;;;-6.87;89.93;100672.10;272466;1277;22173;-81
2024/01/10 10:09:35;;;;;;;374.40;151.40;;;;;;;-6.47;86.78;100665.02;271285;1277;23338;-81
2024/01/10 10:15:37;;;;;;;396.60;161.90;;;;;;;-6.15;86.43;100661.58;272471;1278;22226;-81
2024/01/10 10:21:55;;;;;;;411.70;169.90;;;;;;;-5.52;88.08;100660.60;272492;1280;22458;-82
2024/01/10 10:28:17;;;;;;;396.20;167.20;;;;;;;-5.27;84.37;100656.95;272431;1277;23682;-81
2024/01/10 10:34:42;;;;;;;379.70;157.60;;;;;;;-5.69;82.86;100657.54;270667;1276;22590;-82
2024/01/10 10:41:24;;;;;;;385.40;163.10;;;;;;;-5.69;84.23;100657.92;270814;1277;22289;-82
2024/01/10 10:47:59;;;;;;;375.80;156.70;;;;;;;-5.43;84.58;100651.34;272594;1277;22237;-82
2024/01/10 10:54:30;;;;;;;383.90;162.40;;;;;;;-5.33;83.49;100642.58;272698;1277;22202;-82
2024/01/10 11:01:13;;;;;;;404.20;169.40;;;;;;;-5.31;83.27;100630.05;271390;1275;23321;-81
2024/01/10 11:07:58;;;;;;;394.70;164.50;;;;;;;-5.46;82.10;100619.88;272696;1270;24254;-81
2024/01/10 11:14:22;;;;;;;367.80;156.40;;;;;;;-5.75;82.25;100621.14;272730;1275;22684;-82
2024/01/10 11:21:02;;;;;;;330.00;138.20;;;;;;;-5.89;83.16;100620.60;272068;1277;22356;-82
2024/01/10 11:27:27;;;;;;;359.30;150.40;;;;;;;-5.95;83.25;100614.42;269498;1277;22575;-82
2024/01/10 11:33:41;;;;;;;356.90;146.60;;;;;;;-6.06;84.11;100619.21;272343;1267;22213;-82
2024/01/10 11:40:45;;;;;;;356.10;145.80;;;;;;;-6.06;85.02;100617.52;272005;1281;22313;-82
2024/01/10 11:46:52;;;;;;;325.20;132.40;;;;;;;-5.96;84.19;100618.41;272104;1276;22221;-82
2024/01/10 11:53:36;;;;;;;326.20;128.00;;;;;;;-5.93;84.57;100616.77;272122;1286;22352;-81
2024/01/10 12:00:39;;;;;;;275.40;112.40;;;;;;;-5.79;85.28;100617.41;272067;1286;23316;-80
2024/01/10 12:07:02;;;;;;;275.40;113.30;;;;;;;-5.79;85.70;100610.39;271844;1277;24314;-80
2024/01/10 12:13:45;;;;;;;265.60;109.00;;;;;;;-5.98;86.01;100608.88;272298;1275;22425;-80
2024/01/10 12:20:16;;;;;;;258.60;108.20;;;;;;;-6.03;86.04;100606.77;272290;1277;22235;-81
2024/01/10 12:26:46;;;;;;;258.90;104.80;;;;;;;-5.95;86.21;100602.38;272298;1280;22163;-82
2024/01/10 12:33:29;;;;;;;296.20;122.10;;;;;;;-5.84;86.41;100597.86;272447;1280;22216;-82
2024/01/10 12:40:04;;;;;;;282.70;115.20;;;;;;;-5.68;86.35;100595.65;272582;1283;22281;-82
2024/01/10 12:46:10;;;;;;;222.10;91.60;;;;;;;-5.49;86.54;100588.30;272435;1283;22244;-82
2024/01/10 12:52:48;;;;;;;249.50;104.30;;;;;;;-5.40;86.33;100578.05;272393;1278;22985;-83
2024/01/10 12:59:32;;;;;;;238.30;97.00;;;;;;;-5.40;86.26;100566.16;272411;1283;24192;-81
2024/01/10 13:05:34;;;;;;;294.30;119.70;;;;;;;-5.38;86.32;100558.73;272577;1277;23229;-82
2024/01/10 13:11:56;;;;;;;268.10;114.60;;;;;;;-5.27;86.57;100552.08;272739;1277;22189;-82
2024/01/10 13:18:18;;;;;;;293.90;122.10;;;;;;;-5.24;86.84;100546.88;272604;1283;22203;-82
2024/01/10 13:24:42;;;;;;;287.70;125.20;;;;;;;-5.13;87.09;100541.54;272419;1274;22193;-82
2024/01/10 13:30:43;;;;;;;315.40;135.80;;;;;;;-5.08;87.09;100540.52;272345;1277;22964;-82
2024/01/10 13:37:28;;;;;;;302.40;133.30;;;;;;;-5.07;87.24;100536.11;269717;1275;22642;-82
2024/01/10 13:44:29;;;;;;;322.80;137.30;;;;;;;-5.10;87.52;100529.11;270083;1277;23312;-82
2024/01/10 13:50:31;;;;;;;312.50;132.10;;;;;;;-5.14;87.64;100531.48;272279;1275;22547;-82
2024/01/10 13:56:34;;;;;;;299.50;130.10;;;;;;;-5.13;87.49;100535.58;271018;1277;22574;-81
2024/01/10 14:02:54;;;;;;;281.00;121.90;;;;;;;-5.19;87.42;100529.33;271510;1276;22328;-82
2024/01/10 14:09:36;;;;;;;307.20;132.90;;;;;;;-5.38;87.59;100523.60;270780;1273;22246;-81
2024/01/10 14:15:38;;;;;;;278.30;119.20;;;;;;;-5.39;87.95;100520.70;272461;1275;22240;-81
2024/01/10 14:22:20;;;;;;;257.90;104.90;;;;;;;-5.46;87.86;100518.90;272587;1274;22234;-81
2024/01/10 14:28:43;;;;;;;248.60;102.00;;;;;;;-5.59;87.42;100511.45;270188;1277;22233;-81
2024/01/10 14:35:07;;;;;;;265.30;111.30;;;;;;;-5.85;87.50;100510.57;272290;1280;22590;-81
2024/01/10 14:41:30;;;;;;;268.50;111.20;;;;;;;-5.96;87.65;100510.10;269770;1275;23360;-81
2024/01/10 14:47:32;;;;;;;268.60;111.50;;;;;;;-6.20;87.41;100508.61;271039;1274;22223;-81
2024/01/10 14:54:15;;;;;;;280.80;115.90;;;;;;;-6.40;87.78;100509.98;271445;1271;22504;-81
2024/01/10 15:00:44;;;;;;;264.60;113.80;;;;;;;-6.50;88.23;100505.73;272379;1276;23292;-81
2024/01/10 15:06:46;;;;;;;264.30;110.30;;;;;;;-6.57;88.37;100500.50;272614;1278;23350;-81
2024/01/10 15:12:48;;;;;;;275.40;113.50;;;;;;;-6.78;87.89;100498.51;270381;1276;22671;-80
2024/01/10 15:18:51;;;;;;;262.10;105.60;;;;;;;-6.89;88.09;100497.64;272008;1275;22420;-82
2024/01/10 15:25:13;;;;;;;269.70;113.60;;;;;;;-7.18;87.81;100498.02;271739;1277;22332;-81
2024/01/10 15:31:18;;;;;;;296.70;120.60;;;;;;;-7.31;88.05;100499.37;272637;1277;22225;-80
2024/01/10 15:37:20;;;;;;;317.60;129.60;;;;;;;-7.48;88.08;100497.45;272665;1274;22400;-80
2024/01/10 15:43:43;;;;;;;281.90;118.80;;;;;;;-7.59;88.48;100494.34;272610;1283;22205;-80
2024/01/10 15:50:07;;;;;;;315.60;128.00;;;;;;;-7.81;88.07;100496.54;272642;1280;23202;-80
2024/01/10 15:56:51;;;;;;;307.40;129.00;;;;;;;-8.03;88.06;100493.30;271887;1276;22260;-80
2024/01/10 16:03:13;;;;;;;348.10;145.70;;;;;;;-8.32;88.18;100478.59;271496;1275;23367;-81
2024/01/10 16:09:15;;;;;;;367.60;155.40;;;;;;;-8.46;88.24;100476.66;271424;1275;22392;-81
2024/01/10 16:15:17;;;;;;;406.40;157.70;;;;;;;-8.57;88.50;100481.64;272537;1280;22394;-82
2024/01/10 16:21:25;;;;;;;392.10;161.70;;;;;;;-8.72;88.55;100480.23;272579;1276;22199;-81
2024/01/10 16:27:47;;;;;;;405.00;160.40;;;;;;;-8.91;88.69;100483.27;272627;1281;22195;-81
2024/01/10 16:33:49;;;;;;;394.10;160.00;;;;;;;-9.07;88.74;100493.84;272289;1279;22352;-82
2024/01/10 16:39:53;;;;;;;389.60;157.20;;;;;;;-9.20;88.53;100491.83;272328;1283;22215;-81
2024/01/10 16:46:09;;;;;;;422.80;166.90;;;;;;;-9.38;88.44;100491.09;272515;1279;22325;-81
2024/01/10 16:52:12;;;;;;;433.80;173.50;;;;;;;-9.51;88.59;100485.05;272540;1276;22229;-80
2024/01/10 16:58:13;;;;;;;416.10;165.10;;;;;;;-9.60;88.89;100484.20;270439;1277;23318;-80
2024/01/10 17:04:15;;;;;;;394.20;159.10;;;;;;;-9.68;89.22;100486.88;271530;1275;25408;-80
2024/01/10 17:10:17;;;;;;;390.60;157.80;;;;;;;-9.79;89.01;100484.98;269503;1275;23467;-81
2024/01/10 17:16:36;;;;;;;409.70;160.00;;;;;;;-9.85;88.97;100480.05;270620;1276;23300;-81
2024/01/10 17:22:39;;;;;;;348.80;135.90;;;;;;;-9.90;88.85;100475.88;272225;1278;22219;-81
2024/01/10 17:28:41;;;;;;;364.80;144.00;;;;;;;-10.08;88.25;100474.77;271217;1275;22222;-81
2024/01/10 17:34:43;;;;;;;375.10;147.40;;;;;;;-10.29;88.19;100473.60;270853;1277;22242;-81
2024/01/10 17:40:47;;;;;;;416.10;159.70;;;;;;;-10.38;88.64;100462.20;270783;1275;23733;-81
2024/01/10 17:46:49;;;;;;;369.80;145.30;;;;;;;-10.40;88.80;100453.32;269604;1273;22643;-81
2024/01/10 17:52:51;;;;;;;399.20;152.70;;;;;;;-10.53;88.35;100453.65;270019;1275;22624;-80
2024/01/10 17:58:55;;;;;;;394.80;147.40;;;;;;;-10.67;88.45;100452.87;270575;1271;22307;-80
2024/01/10 18:05:17;;;;;;;355.60;140.30;;;;;;;-10.80;88.75;100444.57;271950;1280;22225;-80
2024/01/10 18:11:19;;;;;;;325.90;119.20;;;;;;;-10.87;88.82;100435.52;270583;1276;22242;-80
2024/01/10 18:17:21;;;;;;;352.60;127.60;;;;;;;-10.95;88.56;100429.11;271326;1275;22563;-80
2024/01/10 18:23:22;;;;;;;377.70;140.50;;;;;;;-11.11;88.59;100422.27;271081;1277;22338;-80
2024/01/10 18:29:24;;;;;;;340.70;131.70;;;;;;;-11.06;89.15;100417.64;270555;1275;22575;-80
2024/01/10 18:35:52;;;;;;;352.40;128.00;;;;;;;-11.10;88.87;100414.02;269722;1275;24247;-80
2024/01/10 18:41:54;;;;;;;347.80;130.80;;;;;;;-11.08;89.76;100404.41;272187;1283;22285;-80
2024/01/10 18:47:59;;;;;;;352.10;129.20;;;;;;;-11.02;90.19;100397.42;272319;1275;22380;-80
2024/01/10 18:54:02;;;;;;;356.20;129.50;;;;;;;-11.05;90.35;100396.64;272407;1277;22433;-79
2024/01/10 19:00:09;;;;;;;347.10;123.40;;;;;;;-11.02;90.78;100393.11;272353;1275;22227;-79
2024/01/10 19:06:11;;;;;;;320.10;118.40;;;;;;;-11.06;90.30;100381.84;272731;1279;22217;-79
2024/01/10 19:12:12;;;;;;;305.00;118.70;;;;;;;-11.06;90.51;100373.75;272507;1278;22200;-80
2024/01/10 19:19:05;;;;;;;;;;;;;;;;;;;;;
2024/01/10 19:25:57;;;;;;;365.40;133.80;;;;;;;-11.08;90.46;100366.02;272511;1281;22230;-80
2024/01/10 19:32:05;;;;;;;343.80;123.60;;;;;;;-11.20;90.07;100365.58;272302;1279;22204;-81
2024/01/10 19:45:45;;;;;;;346.30;124.20;;;;;;;-11.24;90.58;100360.21;271448;1279;22609;-80
2024/01/10 19:52:16;;;;;;;331.40;128.20;;;;;;;-11.29;90.15;100357.86;270955;1281;23117;-79
2024/01/10 19:58:18;;;;;;;350.00;123.90;;;;;;;-11.41;89.66;100362.21;271308;1280;23359;-80
2024/01/10 20:05:08;;;;;;;412.10;153.30;;;;;;;-11.55;89.67;100364.17;270702;1282;22218;-80
2024/01/10 20:11:13;;;;;;;322.00;118.70;;;;;;;-11.59;89.97;100365.97;272444;1277;22234;-80
2024/01/10 20:17:16;;;;;;;406.90;144.60;;;;;;;-11.75;89.84;100362.13;272205;1277;23483;-81
2024/01/10 20:23:40;;;;;;;349.80;133.00;;;;;;;-11.76;90.19;100367.30;272347;1276;22261;-81
2024/01/10 20:29:59;;;;;;;367.80;135.50;;;;;;;-11.79;89.86;100366.18;272503;1275;22199;-81
2024/01/10 20:36:04;;;;;;;394.70;138.60;;;;;;;-11.84;89.69;100370.63;270702;1276;22554;-80
2024/01/10 20:42:06;;;;;;;372.70;135.20;;;;;;;-11.90;89.89;100366.51;271108;1272;22214;-80
2024/01/10 20:48:09;;;;;;;385.10;137.90;;;;;;;-11.90;90.25;100364.03;272664;1283;22189;-80
2024/01/10 20:54:12;;;;;;;393.00;138.00;;;;;;;-11.94;90.01;100360.36;272292;1276;23460;-80
2024/01/10 21:00:37;;;;;;;369.90;136.10;;;;;;;-12.01;90.36;100364.84;272421;1280;22387;-80
2024/01/10 21:06:39;;;;;;;324.10;119.90;;;;;;;-11.98;90.60;100370.20;272584;1283;23377;-79
2024/01/10 21:12:43;;;;;;;415.80;145.10;;;;;;;-11.99;90.67;100370.13;272505;1276;22282;-79
2024/01/10 21:18:45;;;;;;;422.10;151.00;;;;;;;-12.03;90.39;100375.80;272508;1276;22228;-80
2024/01/10 21:24:47;;;;;;;348.30;123.10;;;;;;;-12.10;89.99;100371.55;271107;1277;22312;-81
2024/01/10 21:30:49;;;;;;;371.50;136.50;;;;;;;-12.20;90.48;100363.45;266750;1276;7340705;-80
2024/01/10 21:36:56;;;;;;;360.10;136.30;;;;;;;-12.08;91.63;100352.83;271354;1275;23155;-80
2024/01/10 21:42:58;;;;;;;362.90;133.30;;;;;;;-11.95;92.03;100360.80;272270;1276;22950;-80
2024/01/10 21:49:01;;;;;;;392.40;136.60;;;;;;;-11.88;92.09;100363.47;272534;1276;23089;-80
2024/01/10 21:55:11;;;;;;;386.20;134.70;;;;;;;-11.84;92.00;100362.50;272499;1275;22245;-80
2024/01/10 22:01:46;;;;;;;366.40;125.70;;;;;;;-11.81;91.87;100352.97;271275;1274;23280;-80
2024/01/10 22:07:49;;;;;;;370.80;128.50;;;;;;;-11.81;91.90;100346.48;272471;1273;22409;-80
2024/01/10 22:13:59;;;;;;;367.70;128.70;;;;;;;-11.92;91.54;100335.34;272428;1273;23526;-80
2024/01/10 22:20:17;;;;;;;381.90;133.00;;;;;;;-12.01;91.59;100334.73;272347;1273;22225;-80
2024/01/10 22:26:24;;;;;;;374.20;130.70;;;;;;;-12.08;91.85;100329.46;272531;1271;23386;-80
2024/01/10 22:32:27;;;;;;;387.00;134.50;;;;;;;-12.06;91.92;100321.84;272694;1276;22314;-80
2024/01/10 22:38:46;;;;;;;395.30;135.80;;;;;;;-12.06;92.05;100317.21;272771;1273;22208;-79
2024/01/10 22:44:48;;;;;;;400.70;139.50;;;;;;;-12.03;92.17;100310.48;272709;1273;22415;-79
2024/01/10 22:50:50;;;;;;;382.80;133.60;;;;;;;-12.06;92.18;100307.02;272293;1276;23901;-79
2024/01/10 22:56:52;;;;;;;381.30;130.40;;;;;;;-12.09;92.28;100300.10;271426;1274;22570;-79
2024/01/10 23:02:54;;;;;;;379.50;134.20;;;;;;;-12.12;92.47;100294.64;269945;1273;22364;-79
2024/01/10 23:09:19;;;;;;;381.70;130.50;;;;;;;-12.15;92.75;100295.70;269795;1274;25310;-79
2024/01/10 23:15:23;;;;;;;370.70;130.80;;;;;;;-12.09;93.26;100293.20;271124;1275;22539;-79
2024/01/10 23:21:34;;;;;;;362.30;130.40;;;;;;;-12.00;93.48;100285.06;270577;1274;23216;-80
2024/01/10 23:27:38;;;;;;;375.00;128.50;;;;;;;-11.95;93.32;100276.02;271340;1274;23295;-77
2024/01/10 23:33:42;;;;;;;357.60;123.40;;;;;;;-11.93;93.22;100272.05;272626;1274;22300;-80
2024/01/10 23:40:13;;;;;;;320.80;112.70;;;;;;;-11.94;92.95;100267.16;272498;1282;22196;-80
2024/01/10 23:46:14;;;;;;;353.60;123.40;;;;;;;-12.03;92.78;100259.10;272510;1275;23017;-79
2024/01/10 23:52:17;;;;;;;311.90;105.50;;;;;;;-12.04;92.89;100253.54;272350;1273;22936;-79
2024/01/10 23:58:19;;;;;;;350.90;122.40;;;;;;;-12.16;92.21;100240.02;272538;1273;22689;-79
